Time;durP1;ratioP1;P1;durP2;ratioP2;P2;SDS_P1;SDS_P2;PMS_P1;PMS_P2;Temp;Humidity;BMP_temperature;BMP_pressure;BME280_temperature;BME280_humidity;BME280_pressure;Samples;Min_cycle;Max_cycle;Signal;HPM_P1;HPM_P2
2021/12/06 00:00:20;;;;;;;25.77;12.17;;;;;;;;;;5093788;28;20454;-70
2021/12/06 00:02:48;;;;;;;24.53;12.80;;;;;;;;;;5093506;28;20494;-71
2021/12/06 00:05:16;;;;;;;31.50;15.50;;;;;;;;;;5093806;28;20451;-71
2021/12/06 00:07:43;;;;;;;30.40;12.53;;;;;;;;;;5093076;28;20963;-71
2021/12/06 00:10:11;;;;;;;26.37;11.57;;;;;;;;;;5093598;28;20446;-71
2021/12/06 00:12:41;;;;;;;30.37;13.30;;;;;;;;;;5093631;28;20438;-71
2021/12/06 00:15:09;;;;;;;24.37;13.30;;;;;;;;;;5093353;28;20832;-70
2021/12/06 00:17:36;;;;;;;29.13;14.80;;;;;;;;;;5093344;28;20525;-70
2021/12/06 00:20:03;;;;;;;38.57;13.47;;;;;;;;;;5093336;28;20534;-70
2021/12/06 00:22:31;;;;;;;26.10;13.43;;;;;;;;;;5093393;28;20513;-71
2021/12/06 00:24:58;;;;;;;28.87;14.37;;;;;;;;;;5093074;28;20453;-71
2021/12/06 00:27:26;;;;;;;34.17;15.10;;;;;;;;;;5093161;28;20469;-72
2021/12/06 00:29:55;;;;;;;37.50;15.20;;;;;;;;;;5093352;28;20457;-70
2021/12/06 00:32:22;;;;;;;38.80;17.17;;;;;;;;;;5093295;28;20443;-70
2021/12/06 00:34:50;;;;;;;35.20;14.10;;;;;;;;;;5093193;28;20451;-70
2021/12/06 00:37:19;;;;;;;35.63;16.20;;;;;;;;;;5093014;28;20477;-72
2021/12/06 00:39:47;;;;;;;28.13;14.00;;;;;;;;;;5093066;28;20457;-70
2021/12/06 00:42:14;;;;;;;28.40;13.23;;;;;;;;;;5093193;28;20858;-70
2021/12/06 00:44:41;;;;;;;38.40;14.10;;;;;;;;;;5093186;28;20447;-72
2021/12/06 00:47:10;;;;;;;42.73;16.17;;;;;;;;;;5092864;28;20457;-71
2021/12/06 00:49:37;;;;;;;30.27;14.87;;;;;;;;;;5093322;28;20829;-70
2021/12/06 00:52:05;;;;;;;37.60;14.27;;;;;;;;;;5093094;28;20469;-70
2021/12/06 00:54:35;;;;;;;44.43;13.80;;;;;;;;;;5093297;28;20446;-70
2021/12/06 00:57:03;;;;;;;36.57;14.77;;;;;;;;;;5092792;28;20462;-70
2021/12/06 00:59:30;;;;;;;32.17;15.97;;;;;;;;;;5092938;28;20451;-70
2021/12/06 01:01:57;;;;;;;41.77;16.53;;;;;;;;;;5092847;28;20987;-70
2021/12/06 01:04:25;;;;;;;37.63;15.50;;;;;;;;;;5093070;28;20975;-71
2021/12/06 01:06:53;;;;;;;53.67;16.27;;;;;;;;;;5092700;28;20453;-71
2021/12/06 01:09:20;;;;;;;27.60;12.87;;;;;;;;;;5092895;28;20454;-71
2021/12/06 01:11:47;;;;;;;29.73;14.00;;;;;;;;;;5092915;28;20824;-72
2021/12/06 01:14:14;;;;;;;36.00;15.47;;;;;;;;;;5092911;28;20442;-70
2021/12/06 01:16:41;;;;;;;40.50;15.33;;;;;;;;;;5092958;28;20451;-70
2021/12/06 01:19:08;;;;;;;30.17;14.00;;;;;;;;;;5092726;28;20455;-70
2021/12/06 01:21:45;;;;;;;26.20;14.70;;;;;;;;;;5096782;28;20847;-71
2021/12/06 01:24:16;;;;;;;31.07;15.47;;;;;;;;;;5096780;28;20897;-72
2021/12/06 01:27:12;;;;;;;27.50;13.57;;;;;;;;;;5096529;28;20457;-72
2021/12/06 01:30:02;;;;;;;24.60;12.90;;;;;;;;;;5096819;28;20554;-71
2021/12/06 01:33:00;;;;;;;25.17;13.57;;;;;;;;;;5096676;28;20506;-71
2021/12/06 01:40:55;;;;;;;36.47;15.77;;;;;;;;;;5096440;28;20486;-72
2021/12/06 01:43:22;;;;;;;37.13;15.43;;;;;;;;;;5096393;28;21021;-72
2021/12/06 01:45:49;;;;;;;31.70;15.23;;;;;;;;;;5096320;28;20442;-71
2021/12/06 01:48:16;;;;;;;23.60;12.67;;;;;;;;;;5096299;28;20443;-71
2021/12/06 01:50:43;;;;;;;29.50;12.93;;;;;;;;;;5096350;28;20474;-71
2021/12/06 01:53:12;;;;;;;29.10;13.17;;;;;;;;;;5096038;28;20446;-71
2021/12/06 01:55:40;;;;;;;43.10;14.07;;;;;;;;;;5096247;28;20951;-71
2021/12/06 01:58:08;;;;;;;25.47;12.57;;;;;;;;;;5095850;28;20450;-71
2021/12/06 02:00:37;;;;;;;26.60;13.60;;;;;;;;;;5096279;28;20454;-71
2021/12/06 02:03:04;;;;;;;24.97;12.57;;;;;;;;;;5095961;28;20486;-70
2021/12/06 02:05:31;;;;;;;34.63;12.70;;;;;;;;;;5096189;28;20969;-70
2021/12/06 02:07:58;;;;;;;38.43;14.40;;;;;;;;;;5095661;28;20455;-71
2021/12/06 02:10:27;;;;;;;28.90;14.50;;;;;;;;;;5095971;28;20446;-70
2021/12/06 02:12:55;;;;;;;32.03;15.10;;;;;;;;;;5095859;28;20545;-71
2021/12/06 02:15:35;;;;;;;33.40;15.80;;;;;;;;;;5095815;28;20458;-70
2021/12/06 02:18:07;;;;;;;31.03;13.37;;;;;;;;;;5095843;28;20458;-71
2021/12/06 02:20:42;;;;;;;25.23;13.60;;;;;;;;;;5095712;28;20455;-71
2021/12/06 02:23:10;;;;;;;28.33;13.47;;;;;;;;;;5095598;28;20482;-71
2021/12/06 02:25:37;;;;;;;28.63;14.37;;;;;;;;;;5095496;28;20461;-70
2021/12/06 02:28:05;;;;;;;24.43;12.77;;;;;;;;;;5095454;28;20546;-71
2021/12/06 02:30:32;;;;;;;31.50;13.80;;;;;;;;;;5095047;28;20459;-71
2021/12/06 02:32:59;;;;;;;27.00;13.63;;;;;;;;;;5095263;28;20451;-71
2021/12/06 02:35:27;;;;;;;28.33;16.00;;;;;;;;;;5095427;28;20454;-71
2021/12/06 02:37:54;;;;;;;28.03;14.80;;;;;;;;;;5095056;28;20969;-71
2021/12/06 02:40:24;;;;;;;25.93;12.93;;;;;;;;;;5095303;28;20455;-72
2021/12/06 02:42:52;;;;;;;23.80;13.77;;;;;;;;;;5095261;28;20483;-71
2021/12/06 02:45:21;;;;;;;31.90;16.70;;;;;;;;;;5095229;28;20458;-70
2021/12/06 02:47:52;;;;;;;25.43;15.07;;;;;;;;;;5095109;28;20454;-72
2021/12/06 02:50:20;;;;;;;26.57;15.07;;;;;;;;;;5095237;28;20451;-70
2021/12/06 02:52:47;;;;;;;28.90;15.87;;;;;;;;;;5095060;28;20443;-72
2021/12/06 02:55:29;;;;;;;29.13;15.17;;;;;;;;;;5095213;28;20451;-71
2021/12/06 02:57:58;;;;;;;29.30;14.90;;;;;;;;;;5094770;28;20455;-71
2021/12/06 03:00:26;;;;;;;27.67;14.23;;;;;;;;;;5095192;28;20455;-70
2021/12/06 03:02:53;;;;;;;28.33;13.07;;;;;;;;;;5094665;28;20819;-71
2021/12/06 03:05:20;;;;;;;22.70;13.83;;;;;;;;;;5094751;28;20454;-71
2021/12/06 03:07:52;;;;;;;32.03;15.03;;;;;;;;;;5094636;28;20464;-71
2021/12/06 03:10:19;;;;;;;26.13;14.67;;;;;;;;;;5094431;28;20459;-71
2021/12/06 03:12:47;;;;;;;31.83;14.70;;;;;;;;;;5094719;28;20943;-71
2021/12/06 03:15:16;;;;;;;30.13;14.50;;;;;;;;;;5094476;28;20656;-71
2021/12/06 03:17:45;;;;;;;32.00;15.50;;;;;;;;;;5094456;28;20451;-71
2021/12/06 03:20:14;;;;;;;28.77;14.37;;;;;;;;;;5094386;28;20546;-70
2021/12/06 03:22:41;;;;;;;30.63;13.93;;;;;;;;;;5094502;28;20969;-71
2021/12/06 03:25:10;;;;;;;26.93;14.87;;;;;;;;;;5094475;28;20486;-70
2021/12/06 03:27:37;;;;;;;33.33;14.03;;;;;;;;;;5094317;28;20892;-71
2021/12/06 03:30:05;;;;;;;31.23;15.17;;;;;;;;;;5094438;28;20450;-70
2021/12/06 03:32:33;;;;;;;28.73;16.20;;;;;;;;;;5094485;28;20864;-70
2021/12/06 03:35:00;;;;;;;31.40;15.70;;;;;;;;;;5094029;28;20455;-71
2021/12/06 03:37:28;;;;;;;28.27;15.10;;;;;;;;;;5094235;28;20469;-71
2021/12/06 03:39:55;;;;;;;31.70;15.97;;;;;;;;;;5094187;28;20458;-71
2021/12/06 03:42:24;;;;;;;41.90;18.63;;;;;;;;;;5093372;28;20487;-71
2021/12/06 03:44:51;;;;;;;41.23;18.87;;;;;;;;;;5093959;28;20443;-70
2021/12/06 03:47:22;;;;;;;38.17;16.57;;;;;;;;;;5093709;28;20450;-71
2021/12/06 03:49:51;;;;;;;40.43;16.87;;;;;;;;;;5094039;28;20454;-71
2021/12/06 03:52:18;;;;;;;35.23;15.90;;;;;;;;;;5093904;28;20855;-70
2021/12/06 03:54:46;;;;;;;39.80;17.90;;;;;;;;;;5093934;28;20447;-71
2021/12/06 03:57:13;;;;;;;42.57;17.37;;;;;;;;;;5093558;28;20515;-71
2021/12/06 03:59:40;;;;;;;48.97;20.07;;;;;;;;;;5093721;28;20458;-71
2021/12/06 04:02:08;;;;;;;48.83;18.20;;;;;;;;;;5093543;28;20455;-70
2021/12/06 04:04:35;;;;;;;40.07;18.10;;;;;;;;;;5093724;28;20450;-71
2021/12/06 04:07:03;;;;;;;39.60;19.13;;;;;;;;;;5093403;28;20472;-71
2021/12/06 04:09:31;;;;;;;40.00;15.57;;;;;;;;;;5093876;28;20947;-71
2021/12/06 04:11:58;;;;;;;51.07;19.33;;;;;;;;;;5093543;28;20477;-72
2021/12/06 04:14:25;;;;;;;44.60;20.20;;;;;;;;;;5093681;28;20459;-71
2021/12/06 04:16:53;;;;;;;48.20;20.87;;;;;;;;;;5093274;28;20478;-71
2021/12/06 04:19:20;;;;;;;44.17;17.60;;;;;;;;;;5093714;28;20447;-71
2021/12/06 04:21:47;;;;;;;47.93;20.00;;;;;;;;;;5093438;28;20505;-72
2021/12/06 04:24:16;;;;;;;41.73;18.13;;;;;;;;;;5093462;28;20482;-70
2021/12/06 04:26:44;;;;;;;53.97;20.13;;;;;;;;;;5093273;28;20453;-70
2021/12/06 04:29:11;;;;;;;51.93;21.67;;;;;;;;;;5093161;28;20446;-71
2021/12/06 04:31:40;;;;;;;49.87;20.50;;;;;;;;;;5093464;28;20853;-70
2021/12/06 04:34:07;;;;;;;47.37;21.80;;;;;;;;;;5093304;28;20458;-71
2021/12/06 04:36:34;;;;;;;48.30;21.47;;;;;;;;;;5093246;28;20446;-75
2021/12/06 04:39:01;;;;;;;39.87;17.30;;;;;;;;;;5093151;28;20446;-71
2021/12/06 04:41:30;;;;;;;52.47;20.57;;;;;;;;;;5093414;28;20824;-71
2021/12/06 04:43:57;;;;;;;43.90;22.23;;;;;;;;;;5092968;28;20493;-71
2021/12/06 04:46:24;;;;;;;42.27;20.03;;;;;;;;;;5093346;28;20451;-71
2021/12/06 04:48:51;;;;;;;39.33;20.30;;;;;;;;;;5093310;28;20454;-71
2021/12/06 04:51:18;;;;;;;42.83;18.97;;;;;;;;;;5093051;28;20451;-71
2021/12/06 04:53:45;;;;;;;35.10;17.40;;;;;;;;;;5094162;28;20824;-70
2021/12/06 04:56:15;;;;;;;42.87;18.70;;;;;;;;;;5097244;28;20813;-70
2021/12/06 04:58:47;;;;;;;39.40;19.47;;;;;;;;;;5097140;28;20461;-70
2021/12/06 05:01:16;;;;;;;43.63;17.77;;;;;;;;;;5089231;28;20471;-71
2021/12/06 05:03:43;;;;;;;38.03;18.00;;;;;;;;;;5076978;28;20483;-70
2021/12/06 05:06:12;;;;;;;44.73;21.67;;;;;;;;;;5076768;28;20984;-71
2021/12/06 05:08:40;;;;;;;38.13;18.60;;;;;;;;;;5076768;28;20455;-70
2021/12/06 05:11:08;;;;;;;35.83;19.00;;;;;;;;;;5076836;28;20451;-72
2021/12/06 05:13:36;;;;;;;39.87;19.53;;;;;;;;;;5076949;28;20447;-71
2021/12/06 05:16:04;;;;;;;31.10;19.10;;;;;;;;;;5076752;28;20983;-71
2021/12/06 05:18:31;;;;;;;33.53;18.77;;;;;;;;;;5076647;28;20458;-71
2021/12/06 05:20:59;;;;;;;39.70;17.67;;;;;;;;;;5076469;28;20440;-71
2021/12/06 05:23:26;;;;;;;41.13;19.27;;;;;;;;;;5076461;28;20487;-71
2021/12/06 05:25:53;;;;;;;41.67;19.00;;;;;;;;;;5076456;28;20463;-70
2021/12/06 05:28:23;;;;;;;45.17;20.60;;;;;;;;;;5076311;28;20459;-71
2021/12/06 05:30:54;;;;;;;40.40;18.97;;;;;;;;;;5076501;28;20466;-71
2021/12/06 05:33:29;;;;;;;34.73;18.13;;;;;;;;;;5076489;28;20447;-71
2021/12/06 05:35:58;;;;;;;40.40;18.10;;;;;;;;;;5076272;28;20503;-72
2021/12/06 05:38:25;;;;;;;39.60;18.70;;;;;;;;;;5075280;28;20506;-71
2021/12/06 05:40:52;;;;;;;35.97;18.50;;;;;;;;;;5076081;28;20450;-71
2021/12/06 05:43:19;;;;;;;31.00;17.50;;;;;;;;;;5076226;28;20483;-70
2021/12/06 05:45:47;;;;;;;30.30;18.00;;;;;;;;;;5076186;28;20462;-70
2021/12/06 05:48:14;;;;;;;30.00;16.43;;;;;;;;;;5075986;28;20440;-71
2021/12/06 05:50:43;;;;;;;26.50;16.10;;;;;;;;;;5076175;28;20818;-71
2021/12/06 05:53:10;;;;;;;29.57;16.70;;;;;;;;;;5075837;28;20443;-70
2021/12/06 05:55:37;;;;;;;30.20;18.10;;;;;;;;;;5075985;28;20454;-70
2021/12/06 05:58:06;;;;;;;28.00;16.93;;;;;;;;;;5075667;28;20458;-70
2021/12/06 06:00:33;;;;;;;32.07;17.10;;;;;;;;;;5076165;28;20454;-70
2021/12/06 06:03:00;;;;;;;31.70;16.73;;;;;;;;;;5075521;28;20489;-71
2021/12/06 06:05:27;;;;;;;32.63;15.97;;;;;;;;;;5074875;28;20448;-71
2021/12/06 06:07:56;;;;;;;31.07;16.83;;;;;;;;;;5075491;28;20458;-72
2021/12/06 06:10:23;;;;;;;31.17;17.17;;;;;;;;;;5075816;28;20492;-71
2021/12/06 06:12:50;;;;;;;29.27;15.00;;;;;;;;;;5075723;28;20451;-72
2021/12/06 06:15:17;;;;;;;31.10;19.00;;;;;;;;;;5075454;28;20462;-71
2021/12/06 06:17:47;;;;;;;30.60;16.23;;;;;;;;;;5075488;28;20452;-70
2021/12/06 06:20:17;;;;;;;26.97;16.00;;;;;;;;;;5075497;28;20449;-71
2021/12/06 06:22:44;;;;;;;33.80;18.13;;;;;;;;;;5075400;28;20499;-70
2021/12/06 06:25:14;;;;;;;27.47;15.37;;;;;;;;;;5075187;28;20454;-71
2021/12/06 06:27:41;;;;;;;33.50;17.60;;;;;;;;;;5075476;28;20793;-71
2021/12/06 06:30:08;;;;;;;28.37;16.97;;;;;;;;;;5075304;28;20444;-70
2021/12/06 06:32:36;;;;;;;27.10;15.20;;;;;;;;;;5075225;28;20475;-71
2021/12/06 06:35:04;;;;;;;31.37;16.13;;;;;;;;;;5075030;28;20454;-71
2021/12/06 06:37:31;;;;;;;30.63;15.80;;;;;;;;;;5074895;28;20573;-70
2021/12/06 06:39:58;;;;;;;33.43;17.83;;;;;;;;;;5075110;28;20956;-71
2021/12/06 06:42:27;;;;;;;27.63;15.47;;;;;;;;;;5075129;28;20471;-71
2021/12/06 06:44:55;;;;;;;32.93;16.63;;;;;;;;;;5074791;28;20511;-73
2021/12/06 06:47:22;;;;;;;35.87;17.77;;;;;;;;;;5074706;28;20982;-71
2021/12/06 06:49:49;;;;;;;26.90;15.20;;;;;;;;;;5074829;28;20975;-70
2021/12/06 06:52:17;;;;;;;30.23;16.63;;;;;;;;;;5074950;28;20455;-71
2021/12/06 06:54:44;;;;;;;26.83;15.43;;;;;;;;;;5074885;28;20444;-72
2021/12/06 06:57:11;;;;;;;33.70;17.67;;;;;;;;;;5074478;28;20452;-70
2021/12/06 06:59:40;;;;;;;31.43;17.73;;;;;;;;;;5074731;28;20866;-70
2021/12/06 07:02:08;;;;;;;31.37;16.70;;;;;;;;;;5074738;28;20458;-71
2021/12/06 07:04:35;;;;;;;30.27;16.17;;;;;;;;;;5074623;28;20484;-71
2021/12/06 07:07:03;;;;;;;31.23;17.53;;;;;;;;;;5074390;28;20821;-71
2021/12/06 07:09:30;;;;;;;36.73;17.60;;;;;;;;;;5074603;28;20451;-70
2021/12/06 07:11:58;;;;;;;38.37;18.27;;;;;;;;;;5074498;28;20455;-70
2021/12/06 07:14:25;;;;;;;45.47;20.47;;;;;;;;;;5074479;28;20447;-71
2021/12/06 07:16:54;;;;;;;34.67;17.53;;;;;;;;;;5073491;28;20846;-71
2021/12/06 07:19:21;;;;;;;34.27;17.20;;;;;;;;;;5074159;28;20456;-70
2021/12/06 07:21:48;;;;;;;39.63;17.90;;;;;;;;;;5074249;28;20459;-71
2021/12/06 07:24:15;;;;;;;37.03;16.00;;;;;;;;;;5074243;28;20988;-71
2021/12/06 07:26:42;;;;;;;39.53;17.77;;;;;;;;;;5072243;28;20458;-71
2021/12/06 07:29:09;;;;;;;30.90;15.67;;;;;;;;;;5072261;28;20529;-72
2021/12/06 07:31:37;;;;;;;39.23;18.97;;;;;;;;;;5072558;28;20463;-71
2021/12/06 07:34:05;;;;;;;28.43;15.23;;;;;;;;;;5072080;28;20472;-72
2021/12/06 07:36:32;;;;;;;33.80;16.40;;;;;;;;;;5072195;28;20474;-70
2021/12/06 07:38:59;;;;;;;32.60;18.10;;;;;;;;;;5072128;28;20472;-72
2021/12/06 07:41:28;;;;;;;30.40;15.73;;;;;;;;;;5072186;28;20973;-71
2021/12/06 07:43:56;;;;;;;32.37;17.43;;;;;;;;;;5071928;28;20487;-72
2021/12/06 07:46:23;;;;;;;30.87;15.80;;;;;;;;;;5072221;28;20464;-71
2021/12/06 07:48:52;;;;;;;28.43;17.33;;;;;;;;;;5073015;28;20555;-71
2021/12/06 07:51:21;;;;;;;27.60;16.47;;;;;;;;;;5073544;28;20953;-71
2021/12/06 07:53:48;;;;;;;26.80;16.10;;;;;;;;;;5073483;28;20491;-71
2021/12/06 07:56:15;;;;;;;39.33;20.83;;;;;;;;;;5073567;28;20863;-70
2021/12/06 07:58:42;;;;;;;31.60;16.70;;;;;;;;;;5073494;28;20459;-71
2021/12/06 08:01:10;;;;;;;28.43;14.93;;;;;;;;;;5073452;28;20458;-72
2021/12/06 08:03:37;;;;;;;25.80;14.53;;;;;;;;;;5073637;28;20491;-71
2021/12/06 08:06:04;;;;;;;26.73;14.00;;;;;;;;;;5073248;28;20804;-71
2021/12/06 08:08:34;;;;;;;29.83;16.00;;;;;;;;;;5073326;28;20459;-70
2021/12/06 08:11:04;;;;;;;24.50;15.43;;;;;;;;;;5073354;28;20895;-71
2021/12/06 08:13:33;;;;;;;24.07;15.53;;;;;;;;;;5073422;28;20456;-71
2021/12/06 08:16:01;;;;;;;22.37;15.07;;;;;;;;;;5073191;28;20455;-72
2021/12/06 08:18:28;;;;;;;28.43;14.43;;;;;;;;;;5073209;28;20969;-70
2021/12/06 08:20:56;;;;;;;29.20;16.60;;;;;;;;;;5073447;28;20800;-72
2021/12/06 08:23:24;;;;;;;27.67;16.17;;;;;;;;;;5073065;28;20459;-70
2021/12/06 08:25:53;;;;;;;30.90;14.30;;;;;;;;;;5073156;28;20448;-71
2021/12/06 08:28:23;;;;;;;31.53;16.33;;;;;;;;;;5072841;28;20448;-70
2021/12/06 08:30:50;;;;;;;27.87;14.67;;;;;;;;;;5073111;28;20866;-71
2021/12/06 08:33:17;;;;;;;26.57;13.50;;;;;;;;;;5073055;28;20460;-71
2021/12/06 08:35:46;;;;;;;26.70;15.87;;;;;;;;;;5073013;28;20542;-70
2021/12/06 08:38:15;;;;;;;26.20;14.23;;;;;;;;;;5072786;28;20463;-71
2021/12/06 08:40:44;;;;;;;25.20;16.00;;;;;;;;;;5073134;28;20530;-71
2021/12/06 08:43:16;;;;;;;22.30;14.10;;;;;;;;;;5072946;28;20459;-71
2021/12/06 08:45:44;;;;;;;22.40;14.47;;;;;;;;;;5072982;28;20494;-71
2021/12/06 08:48:11;;;;;;;22.83;14.70;;;;;;;;;;5072881;28;20459;-71
2021/12/06 08:50:38;;;;;;;21.83;12.40;;;;;;;;;;5073038;28;20471;-70
2021/12/06 08:53:05;;;;;;;30.00;18.83;;;;;;;;;;5072813;28;20463;-71
2021/12/06 08:55:32;;;;;;;23.80;14.93;;;;;;;;;;5072998;28;20451;-70
2021/12/06 08:58:00;;;;;;;22.53;14.27;;;;;;;;;;5072757;28;20455;-71
2021/12/06 09:00:30;;;;;;;24.03;15.90;;;;;;;;;;5073030;28;20452;-71
2021/12/06 09:02:57;;;;;;;29.20;15.27;;;;;;;;;;5072774;28;20452;-71
2021/12/06 09:05:26;;;;;;;22.23;13.20;;;;;;;;;;5072849;28;20490;-71
2021/12/06 09:07:53;;;;;;;21.53;14.47;;;;;;;;;;5072459;28;20933;-71
2021/12/06 09:10:21;;;;;;;29.77;14.70;;;;;;;;;;5072801;28;20792;-70
2021/12/06 09:12:49;;;;;;;24.97;13.50;;;;;;;;;;5072833;28;20448;-71
2021/12/06 09:15:18;;;;;;;22.47;13.93;;;;;;;;;;5072706;28;20510;-70
2021/12/06 09:17:46;;;;;;;26.60;14.87;;;;;;;;;;5072691;28;20822;-70
2021/12/06 09:20:14;;;;;;;25.87;14.37;;;;;;;;;;5072627;28;20447;-70
2021/12/06 09:22:43;;;;;;;25.63;16.23;;;;;;;;;;5072676;28;20447;-70
2021/12/06 09:25:11;;;;;;;26.50;15.30;;;;;;;;;;5072501;28;20493;-71
2021/12/06 09:27:38;;;;;;;20.47;13.87;;;;;;;;;;5069481;28;21027;-72
2021/12/06 09:30:07;;;;;;;23.77;13.73;;;;;;;;;;5070759;28;20476;-72
2021/12/06 09:32:34;;;;;;;28.63;15.13;;;;;;;;;;5071027;28;20471;-72
2021/12/06 09:35:03;;;;;;;26.00;13.20;;;;;;;;;;5070888;28;20463;-71
2021/12/06 09:37:31;;;;;;;22.40;13.30;;;;;;;;;;5070938;28;20479;-70
2021/12/06 09:39:59;;;;;;;22.17;12.90;;;;;;;;;;5070572;28;20514;-71
2021/12/06 09:42:32;;;;;;;21.50;14.03;;;;;;;;;;5074248;28;20474;-71
2021/12/06 09:44:59;;;;;;;23.43;12.93;;;;;;;;;;5074180;28;20590;-71
2021/12/06 09:47:28;;;;;;;20.73;13.63;;;;;;;;;;5074564;28;20464;-70
2021/12/06 09:49:55;;;;;;;25.77;13.73;;;;;;;;;;5073864;28;20533;-71
2021/12/06 09:52:24;;;;;;;21.80;13.33;;;;;;;;;;5074584;28;20838;-70
2021/12/06 09:54:51;;;;;;;27.70;12.93;;;;;;;;;;5069013;28;20459;-71
2021/12/06 09:57:18;;;;;;;20.10;12.43;;;;;;;;;;5073961;28;20878;-70
2021/12/06 09:59:46;;;;;;;22.40;13.73;;;;;;;;;;5074249;28;20459;-71
2021/12/06 10:02:15;;;;;;;21.13;11.90;;;;;;;;;;5074266;28;20471;-71
2021/12/06 10:04:46;;;;;;;21.60;13.27;;;;;;;;;;5074088;28;20897;-71
2021/12/06 10:07:14;;;;;;;18.70;10.53;;;;;;;;;;5073929;28;20472;-71
2021/12/06 10:09:44;;;;;;;22.40;13.83;;;;;;;;;;5074179;28;20919;-71
2021/12/06 10:12:12;;;;;;;24.33;13.70;;;;;;;;;;5073857;28;20893;-71
2021/12/06 10:14:41;;;;;;;25.43;14.10;;;;;;;;;;5073939;28;20459;-72
2021/12/06 10:17:09;;;;;;;26.40;15.20;;;;;;;;;;5073797;28;20503;-72
2021/12/06 10:19:36;;;;;;;19.83;12.43;;;;;;;;;;5073894;28;20482;-71
2021/12/06 10:22:03;;;;;;;24.50;14.10;;;;;;;;;;5073717;28;20480;-71
2021/12/06 10:24:31;;;;;;;23.97;13.37;;;;;;;;;;5073815;28;20492;-71
2021/12/06 10:27:08;;;;;;;27.27;13.30;;;;;;;;;;5073188;28;20526;-71
2021/12/06 10:29:38;;;;;;;19.57;12.47;;;;;;;;;;5073755;28;20471;-71
2021/12/06 10:32:11;;;;;;;21.60;14.00;;;;;;;;;;5073476;28;20498;-71
2021/12/06 10:34:38;;;;;;;28.50;13.70;;;;;;;;;;5073800;28;20918;-71
2021/12/06 10:37:05;;;;;;;25.10;14.13;;;;;;;;;;5071764;28;20495;-71
2021/12/06 10:39:36;;;;;;;21.60;12.10;;;;;;;;;;5073451;28;20464;-72
2021/12/06 10:42:04;;;;;;;18.07;11.67;;;;;;;;;;5073024;28;20472;-71
2021/12/06 10:44:32;;;;;;;20.60;13.30;;;;;;;;;;5074786;28;20492;-70
2021/12/06 10:46:59;;;;;;;21.60;13.20;;;;;;;;;;5074800;28;20952;-71
2021/12/06 10:49:27;;;;;;;24.13;13.00;;;;;;;;;;5074753;28;20454;-70
2021/12/06 10:51:54;;;;;;;26.03;12.40;;;;;;;;;;5074642;28;20554;-71
2021/12/06 10:54:33;;;;;;;17.90;12.23;;;;;;;;;;5074925;28;20455;-70
2021/12/06 10:57:03;;;;;;;19.80;13.50;;;;;;;;;;5074625;28;20459;-71
2021/12/06 10:59:31;;;;;;;23.20;13.77;;;;;;;;;;5074759;28;20459;-70
2021/12/06 11:02:05;;;;;;;25.63;12.40;;;;;;;;;;5074835;28;20454;-70
2021/12/06 11:04:32;;;;;;;23.17;12.50;;;;;;;;;;5074168;28;21018;-70
2021/12/06 11:07:05;;;;;;;22.23;11.47;;;;;;;;;;5074328;28;20459;-71
2021/12/06 11:09:33;;;;;;;19.80;12.40;;;;;;;;;;5074586;28;20487;-70
2021/12/06 11:12:01;;;;;;;21.23;13.20;;;;;;;;;;5074492;28;20845;-71
2021/12/06 11:14:30;;;;;;;25.93;13.73;;;;;;;;;;5074525;28;20456;-70
2021/12/06 11:16:58;;;;;;;26.10;14.07;;;;;;;;;;5074237;28;20960;-71
2021/12/06 11:19:28;;;;;;;23.43;13.73;;;;;;;;;;5074469;28;20448;-71
2021/12/06 11:21:57;;;;;;;27.73;14.20;;;;;;;;;;5074279;28;20554;-71
2021/12/06 11:24:25;;;;;;;22.50;12.03;;;;;;;;;;5074191;28;20454;-71
2021/12/06 11:26:55;;;;;;;22.50;12.53;;;;;;;;;;5074014;28;20455;-72
2021/12/06 11:29:23;;;;;;;28.77;15.47;;;;;;;;;;5074289;28;20455;-71
2021/12/06 11:31:52;;;;;;;27.37;13.50;;;;;;;;;;5074027;28;20455;-71
2021/12/06 11:34:19;;;;;;;21.10;11.77;;;;;;;;;;5074104;28;20862;-71
2021/12/06 11:36:48;;;;;;;28.53;13.00;;;;;;;;;;5073807;28;20467;-71
2021/12/06 11:39:19;;;;;;;36.17;16.23;;;;;;;;;;5073952;28;20451;-71
2021/12/06 11:41:48;;;;;;;25.70;13.63;;;;;;;;;;5074224;28;20459;-71
2021/12/06 11:44:17;;;;;;;24.83;12.80;;;;;;;;;;5073733;28;20884;-71
2021/12/06 11:46:45;;;;;;;22.30;12.20;;;;;;;;;;5072414;28;20868;-72
2021/12/06 11:49:22;;;;;;;29.93;13.97;;;;;;;;;;5073499;28;20487;-71
2021/12/06 11:51:51;;;;;;;20.13;10.97;;;;;;;;;;5073948;28;20862;-71
2021/12/06 11:54:18;;;;;;;21.57;12.17;;;;;;;;;;5073810;28;20443;-71
2021/12/06 11:56:48;;;;;;;16.90;10.60;;;;;;;;;;5073586;28;20936;-71
2021/12/06 11:59:17;;;;;;;25.80;10.97;;;;;;;;;;5073885;28;20924;-71
2021/12/06 12:01:45;;;;;;;15.50;9.97;;;;;;;;;;5073559;28;20936;-71
2021/12/06 12:04:14;;;;;;;20.93;11.53;;;;;;;;;;5072988;28;20979;-71
2021/12/06 12:06:43;;;;;;;24.40;11.03;;;;;;;;;;5073204;28;20484;-71
2021/12/06 12:09:13;;;;;;;18.37;10.37;;;;;;;;;;5073287;28;20447;-71
2021/12/06 12:11:57;;;;;;;16.23;9.40;;;;;;;;;;5073409;28;20835;-70
2021/12/06 12:14:29;;;;;;;22.50;11.03;;;;;;;;;;5073434;28;20517;-71
2021/12/06 12:16:56;;;;;;;22.90;11.90;;;;;;;;;;5073056;28;20882;-72
2021/12/06 12:19:24;;;;;;;20.50;11.90;;;;;;;;;;5073407;28;20454;-70
2021/12/06 12:21:51;;;;;;;23.23;11.27;;;;;;;;;;5073280;28;20976;-71
2021/12/06 12:24:19;;;;;;;21.83;11.87;;;;;;;;;;5073448;28;20455;-71
2021/12/06 12:26:56;;;;;;;18.80;10.87;;;;;;;;;;5072965;28;20484;-71
2021/12/06 12:29:26;;;;;;;18.23;10.27;;;;;;;;;;5073082;28;20458;-70
2021/12/06 12:31:57;;;;;;;24.80;10.90;;;;;;;;;;5073286;28;20482;-71
2021/12/06 12:34:25;;;;;;;21.90;11.10;;;;;;;;;;5073061;28;20858;-71
2021/12/06 12:36:52;;;;;;;19.27;10.60;;;;;;;;;;5072728;28;20478;-72
2021/12/06 12:39:21;;;;;;;20.87;10.00;;;;;;;;;;5073065;28;20882;-70
2021/12/06 12:41:49;;;;;;;18.47;10.07;;;;;;;;;;5073081;28;20455;-71
2021/12/06 12:44:16;;;;;;;16.73;9.17;;;;;;;;;;5072976;28;20448;-70
2021/12/06 12:46:45;;;;;;;21.33;10.87;;;;;;;;;;5072728;28;20491;-71
2021/12/06 12:49:14;;;;;;;19.87;11.07;;;;;;;;;;5072863;28;20459;-71
2021/12/06 12:51:47;;;;;;;11.53;7.63;;;;;;;;;;5072994;28;20836;-71
2021/12/06 12:54:18;;;;;;;19.13;11.10;;;;;;;;;;5072971;28;20459;-71
2021/12/06 12:56:49;;;;;;;18.27;11.00;;;;;;;;;;5072723;28;20444;-72
2021/12/06 12:59:21;;;;;;;19.60;10.87;;;;;;;;;;5072655;28;20454;-72
2021/12/06 13:02:03;;;;;;;16.80;11.50;;;;;;;;;;5072760;28;20452;-72
2021/12/06 13:04:50;;;;;;;17.13;10.03;;;;;;;;;;5072774;28;20444;-71
2021/12/06 13:07:19;;;;;;;18.73;11.33;;;;;;;;;;5072780;28;20448;-72
2021/12/06 13:09:46;;;;;;;15.47;9.23;;;;;;;;;;5072732;28;20459;-71
2021/12/06 13:12:16;;;;;;;24.93;12.60;;;;;;;;;;5072693;28;20447;-71
2021/12/06 13:14:47;;;;;;;20.67;11.47;;;;;;;;;;5073575;28;20451;-72
2021/12/06 13:17:23;;;;;;;20.67;11.77;;;;;;;;;;5076426;28;20466;-73
2021/12/06 13:19:56;;;;;;;21.43;10.90;;;;;;;;;;5076596;28;20518;-72
2021/12/06 13:22:30;;;;;;;21.43;11.20;;;;;;;;;;5076659;28;20451;-71
2021/12/06 13:24:59;;;;;;;22.13;11.60;;;;;;;;;;5076485;28;20899;-71
2021/12/06 13:27:31;;;;;;;22.80;12.20;;;;;;;;;;5076404;28;20841;-71
2021/12/06 13:30:00;;;;;;;20.97;12.57;;;;;;;;;;5076427;28;20448;-71
2021/12/06 13:32:28;;;;;;;22.27;13.13;;;;;;;;;;5076317;28;20447;-70
2021/12/06 13:34:56;;;;;;;22.33;13.57;;;;;;;;;;5076177;28;20459;-71
2021/12/06 13:37:28;;;;;;;31.03;13.73;;;;;;;;;;5076067;28;20464;-70
2021/12/06 13:39:55;;;;;;;22.47;13.27;;;;;;;;;;5076454;28;20945;-72
2021/12/06 13:42:37;;;;;;;26.43;13.37;;;;;;;;;;5076190;28;20490;-70
2021/12/06 13:45:06;;;;;;;25.00;13.67;;;;;;;;;;5075950;28;20466;-70
2021/12/06 13:47:33;;;;;;;24.10;10.80;;;;;;;;;;5075910;28;20471;-70
2021/12/06 13:50:01;;;;;;;24.80;11.90;;;;;;;;;;5075929;28;20526;-70
2021/12/06 13:52:40;;;;;;;24.93;12.70;;;;;;;;;;5076097;28;20451;-70
2021/12/06 13:55:20;;;;;;;21.30;13.87;;;;;;;;;;5075887;28;20866;-71
2021/12/06 13:57:49;;;;;;;20.30;12.30;;;;;;;;;;5075818;28;20812;-70
2021/12/06 14:00:23;;;;;;;21.23;11.40;;;;;;;;;;5076132;28;20444;-71
2021/12/06 14:02:51;;;;;;;22.13;13.33;;;;;;;;;;5075682;28;20546;-72
2021/12/06 14:05:18;;;;;;;17.43;10.90;;;;;;;;;;5075661;28;20535;-71
2021/12/06 14:07:47;;;;;;;22.07;11.83;;;;;;;;;;5075610;28;20460;-70
2021/12/06 14:10:14;;;;;;;24.20;12.90;;;;;;;;;;5075799;28;20487;-71
2021/12/06 14:12:42;;;;;;;26.50;14.70;;;;;;;;;;5075560;28;20451;-71
2021/12/06 14:15:18;;;;;;;30.40;13.67;;;;;;;;;;5075449;28;20451;-71
2021/12/06 14:17:46;;;;;;;22.33;12.10;;;;;;;;;;5075464;28;20459;-70
2021/12/06 14:20:14;;;;;;;35.10;15.37;;;;;;;;;;5075437;28;20956;-71
2021/12/06 14:22:42;;;;;;;25.73;13.13;;;;;;;;;;5075469;28;20542;-71
2021/12/06 14:25:13;;;;;;;27.67;12.50;;;;;;;;;;5075332;28;20798;-71
2021/12/06 14:27:41;;;;;;;23.07;14.00;;;;;;;;;;5074794;28;20439;-71
2021/12/06 14:30:10;;;;;;;22.70;12.27;;;;;;;;;;5075303;28;20459;-70